<?xml version="1.0" encoding="UTF-8" standalone="no" ?>
<gpx xmlns="http://www.topografix.com/GPX/1/1" xmlns:xsi="http://www.w3.org/2001/XMLSchema-instance" xsi:schemaLocation="http://www.topografix.com/GPX/1/1 http://www.topografix.com/GPX/1/1/gpx.xsd" version="1.1" creator="VisuGPX - https://www.visugpx.com">
  <metadata>
    <name>Croix de Provence par Venturier</name>
    <desc><![CDATA[Croix de Provence par Venturier]]></desc>
  </metadata>
  <trk>
    <name><![CDATA[Croix de provence - Par Venturier]]></name>
    <trkseg>
      <trkpt lat="43.55365" lon="5.57893">
        <ele>366</ele>
        <time>2010-08-15T11:20:36Z</time>
      </trkpt>
      <trkpt lat="43.55363" lon="5.57895">
        <ele>366</ele>
        <time>2010-08-15T11:21:06Z</time>
      </trkpt>
      <trkpt lat="43.55332" lon="5.57883">
        <ele>363</ele>
        <time>2010-08-15T11:21:36Z</time>
      </trkpt>
      <trkpt lat="43.55313" lon="5.57878">
        <ele>361</ele>
        <time>2010-08-15T11:22:06Z</time>
      </trkpt>
      <trkpt lat="43.55285" lon="5.57857">
        <ele>359</ele>
        <time>2010-08-15T11:22:36Z</time>
      </trkpt>
      <trkpt lat="43.55282" lon="5.57832">
        <ele>359</ele>
        <time>2010-08-15T11:23:06Z</time>
      </trkpt>
      <trkpt lat="43.55257" lon="5.57867">
        <ele>358</ele>
        <time>2010-08-15T11:23:37Z</time>
      </trkpt>
      <trkpt lat="43.55232" lon="5.57903">
        <ele>357</ele>
        <time>2010-08-15T11:24:07Z</time>
      </trkpt>
      <trkpt lat="43.55215" lon="5.57942">
        <ele>356</ele>
        <time>2010-08-15T11:24:37Z</time>
      </trkpt>
      <trkpt lat="43.55195" lon="5.57977">
        <ele>355</ele>
        <time>2010-08-15T11:25:07Z</time>
      </trkpt>
      <trkpt lat="43.55173" lon="5.58025">
        <ele>355</ele>
        <time>2010-08-15T11:25:37Z</time>
      </trkpt>
      <trkpt lat="43.55183" lon="5.58068">
        <ele>355</ele>
        <time>2010-08-15T11:26:07Z</time>
      </trkpt>
      <trkpt lat="43.55187" lon="5.58123">
        <ele>356</ele>
        <time>2010-08-15T11:26:37Z</time>
      </trkpt>
      <trkpt lat="43.552" lon="5.58175">
        <ele>357</ele>
        <time>2010-08-15T11:27:07Z</time>
      </trkpt>
      <trkpt lat="43.55227" lon="5.58215">
        <ele>358</ele>
        <time>2010-08-15T11:27:38Z</time>
      </trkpt>
      <trkpt lat="43.55252" lon="5.58223">
        <ele>359</ele>
        <time>2010-08-15T11:28:08Z</time>
      </trkpt>
      <trkpt lat="43.55272" lon="5.5825">
        <ele>360</ele>
        <time>2010-08-15T11:28:38Z</time>
      </trkpt>
      <trkpt lat="43.55272" lon="5.58245">
        <ele>360</ele>
        <time>2010-08-15T11:29:08Z</time>
      </trkpt>
      <trkpt lat="43.55252" lon="5.58227">
        <ele>359</ele>
        <time>2010-08-15T11:29:38Z</time>
      </trkpt>
      <trkpt lat="43.55242" lon="5.58228">
        <ele>359</ele>
        <time>2010-08-15T11:30:08Z</time>
      </trkpt>
      <trkpt lat="43.55243" lon="5.58228">
        <ele>359</ele>
        <time>2010-08-15T11:30:38Z</time>
      </trkpt>
      <trkpt lat="43.55268" lon="5.58238">
        <ele>360</ele>
        <time>2010-08-15T11:31:09Z</time>
      </trkpt>
      <trkpt lat="43.55287" lon="5.58283">
        <ele>360</ele>
        <time>2010-08-15T11:31:39Z</time>
      </trkpt>
      <trkpt lat="43.55298" lon="5.58327">
        <ele>360</ele>
        <time>2010-08-15T11:32:09Z</time>
      </trkpt>
      <trkpt lat="43.553" lon="5.58365">
        <ele>361</ele>
        <time>2010-08-15T11:32:39Z</time>
      </trkpt>
      <trkpt lat="43.5528" lon="5.58378">
        <ele>359</ele>
        <time>2010-08-15T11:33:09Z</time>
      </trkpt>
      <trkpt lat="43.55263" lon="5.58417">
        <ele>359</ele>
        <time>2010-08-15T11:33:39Z</time>
      </trkpt>
      <trkpt lat="43.55267" lon="5.58458">
        <ele>359</ele>
        <time>2010-08-15T11:34:09Z</time>
      </trkpt>
      <trkpt lat="43.55247" lon="5.58492">
        <ele>359</ele>
        <time>2010-08-15T11:34:39Z</time>
      </trkpt>
      <trkpt lat="43.55225" lon="5.58457">
        <ele>360</ele>
        <time>2010-08-15T11:35:09Z</time>
      </trkpt>
      <trkpt lat="43.552" lon="5.58433">
        <ele>364</ele>
        <time>2010-08-15T11:35:39Z</time>
      </trkpt>
      <trkpt lat="43.55187" lon="5.58407">
        <ele>364</ele>
        <time>2010-08-15T11:36:09Z</time>
      </trkpt>
      <trkpt lat="43.55157" lon="5.58402">
        <ele>364</ele>
        <time>2010-08-15T11:36:39Z</time>
      </trkpt>
      <trkpt lat="43.55123" lon="5.58417">
        <ele>364</ele>
        <time>2010-08-15T11:37:09Z</time>
      </trkpt>
      <trkpt lat="43.55108" lon="5.58412">
        <ele>361</ele>
        <time>2010-08-15T11:37:40Z</time>
      </trkpt>
      <trkpt lat="43.55076" lon="5.58361">
        <ele>359</ele>
      </trkpt>
      <trkpt lat="43.55075" lon="5.58309">
        <ele>362</ele>
      </trkpt>
      <trkpt lat="43.5505" lon="5.58261">
        <ele>369</ele>
      </trkpt>
      <trkpt lat="43.55077" lon="5.5817">
        <ele>368</ele>
      </trkpt>
      <trkpt lat="43.55056" lon="5.58128">
        <ele>375</ele>
      </trkpt>
      <trkpt lat="43.55016" lon="5.58194">
        <ele>381</ele>
      </trkpt>
      <trkpt lat="43.54979" lon="5.58155">
        <ele>392</ele>
      </trkpt>
      <trkpt lat="43.54963" lon="5.58074">
        <ele>411</ele>
      </trkpt>
      <trkpt lat="43.54913" lon="5.57953">
        <ele>426</ele>
      </trkpt>
      <trkpt lat="43.54855" lon="5.57953">
        <ele>433</ele>
      </trkpt>
      <trkpt lat="43.54773" lon="5.57973">
        <ele>440</ele>
      </trkpt>
      <trkpt lat="43.54752" lon="5.57929">
        <ele>443</ele>
      </trkpt>
      <trkpt lat="43.54756" lon="5.57855">
        <ele>443</ele>
      </trkpt>
      <trkpt lat="43.54748" lon="5.57823">
        <ele>446</ele>
      </trkpt>
      <trkpt lat="43.54756" lon="5.57716">
        <ele>449</ele>
      </trkpt>
      <trkpt lat="43.54712" lon="5.57679">
        <ele>454</ele>
      </trkpt>
      <trkpt lat="43.54587" lon="5.5774">
        <ele>471</ele>
      </trkpt>
      <trkpt lat="43.54506" lon="5.57726">
        <ele>485</ele>
      </trkpt>
      <trkpt lat="43.5429" lon="5.57816">
        <ele>528</ele>
      </trkpt>
      <trkpt lat="43.54296" lon="5.57696">
        <ele>545</ele>
      </trkpt>
      <trkpt lat="43.54264" lon="5.57706">
        <ele>556</ele>
      </trkpt>
      <trkpt lat="43.54207" lon="5.57647">
        <ele>572</ele>
      </trkpt>
      <trkpt lat="43.54162" lon="5.57728">
        <ele>586</ele>
      </trkpt>
      <trkpt lat="43.54134" lon="5.57671">
        <ele>601</ele>
      </trkpt>
      <trkpt lat="43.5391" lon="5.57736">
        <ele>649</ele>
      </trkpt>
      <trkpt lat="43.53775" lon="5.57796">
        <ele>677</ele>
      </trkpt>
      <trkpt lat="43.53721" lon="5.57867">
        <ele>683</ele>
      </trkpt>
      <trkpt lat="43.53634" lon="5.57943">
        <ele>710</ele>
      </trkpt>
      <trkpt lat="43.53603" lon="5.57913">
        <ele>718</ele>
      </trkpt>
      <trkpt lat="43.53547" lon="5.57922">
        <ele>729</ele>
      </trkpt>
      <trkpt lat="43.53476" lon="5.57952">
        <ele>751</ele>
      </trkpt>
      <trkpt lat="43.53414" lon="5.57924">
        <ele>754</ele>
      </trkpt>
      <trkpt lat="43.53351" lon="5.57926">
        <ele>774</ele>
      </trkpt>
      <trkpt lat="43.53354" lon="5.57883">
        <ele>773</ele>
      </trkpt>
      <trkpt lat="43.53375" lon="5.57789">
        <ele>778</ele>
      </trkpt>
      <trkpt lat="43.53316" lon="5.57878">
        <ele>793</ele>
      </trkpt>
      <trkpt lat="43.53332" lon="5.57796">
        <ele>801</ele>
      </trkpt>
      <trkpt lat="43.53318" lon="5.57748">
        <ele>814</ele>
      </trkpt>
      <trkpt lat="43.5331" lon="5.57785">
        <ele>815</ele>
      </trkpt>
      <trkpt lat="43.53304" lon="5.57701">
        <ele>822</ele>
      </trkpt>
      <trkpt lat="43.53285" lon="5.57793">
        <ele>827</ele>
      </trkpt>
      <trkpt lat="43.53271" lon="5.57755">
        <ele>838</ele>
      </trkpt>
      <trkpt lat="43.53246" lon="5.57822">
        <ele>847</ele>
      </trkpt>
      <trkpt lat="43.53233" lon="5.57722">
        <ele>855</ele>
      </trkpt>
      <trkpt lat="43.5322" lon="5.57625">
        <ele>862</ele>
      </trkpt>
      <trkpt lat="43.53185" lon="5.57716">
        <ele>882</ele>
      </trkpt>
      <trkpt lat="43.53173" lon="5.57867">
        <ele>887</ele>
      </trkpt>
      <trkpt lat="43.53144" lon="5.57896">
        <ele>896</ele>
      </trkpt>
      <trkpt lat="43.53114" lon="5.58">
        <ele>922</ele>
      </trkpt>
      <trkpt lat="43.53077" lon="5.57997">
        <ele>917</ele>
      </trkpt>
      <trkpt lat="43.53114" lon="5.58">
        <ele>922</ele>
      </trkpt>
      <trkpt lat="43.53144" lon="5.57896">
        <ele>896</ele>
      </trkpt>
      <trkpt lat="43.53173" lon="5.57867">
        <ele>887</ele>
      </trkpt>
      <trkpt lat="43.53185" lon="5.57716">
        <ele>882</ele>
      </trkpt>
      <trkpt lat="43.5322" lon="5.57625">
        <ele>862</ele>
      </trkpt>
      <trkpt lat="43.53233" lon="5.57722">
        <ele>855</ele>
      </trkpt>
      <trkpt lat="43.53246" lon="5.57822">
        <ele>847</ele>
      </trkpt>
      <trkpt lat="43.53271" lon="5.57755">
        <ele>838</ele>
      </trkpt>
      <trkpt lat="43.53285" lon="5.57793">
        <ele>827</ele>
      </trkpt>
      <trkpt lat="43.53304" lon="5.57701">
        <ele>822</ele>
      </trkpt>
      <trkpt lat="43.53318" lon="5.57748">
        <ele>814</ele>
      </trkpt>
      <trkpt lat="43.53332" lon="5.57796">
        <ele>801</ele>
      </trkpt>
      <trkpt lat="43.53316" lon="5.57878">
        <ele>793</ele>
      </trkpt>
      <trkpt lat="43.53375" lon="5.57789">
        <ele>778</ele>
      </trkpt>
      <trkpt lat="43.53354" lon="5.57883">
        <ele>773</ele>
      </trkpt>
      <trkpt lat="43.53351" lon="5.57926">
        <ele>774</ele>
      </trkpt>
      <trkpt lat="43.53414" lon="5.57924">
        <ele>754</ele>
      </trkpt>
      <trkpt lat="43.53476" lon="5.57952">
        <ele>751</ele>
      </trkpt>
      <trkpt lat="43.53547" lon="5.57922">
        <ele>729</ele>
      </trkpt>
      <trkpt lat="43.53603" lon="5.57913">
        <ele>718</ele>
      </trkpt>
      <trkpt lat="43.53634" lon="5.57943">
        <ele>710</ele>
      </trkpt>
      <trkpt lat="43.53721" lon="5.57867">
        <ele>683</ele>
      </trkpt>
      <trkpt lat="43.53775" lon="5.57796">
        <ele>677</ele>
      </trkpt>
      <trkpt lat="43.5391" lon="5.57736">
        <ele>649</ele>
      </trkpt>
      <trkpt lat="43.54134" lon="5.57671">
        <ele>601</ele>
      </trkpt>
      <trkpt lat="43.54162" lon="5.57728">
        <ele>586</ele>
      </trkpt>
      <trkpt lat="43.54207" lon="5.57647">
        <ele>572</ele>
      </trkpt>
      <trkpt lat="43.54264" lon="5.57706">
        <ele>556</ele>
      </trkpt>
      <trkpt lat="43.54296" lon="5.57696">
        <ele>545</ele>
      </trkpt>
      <trkpt lat="43.5429" lon="5.57816">
        <ele>528</ele>
      </trkpt>
      <trkpt lat="43.54506" lon="5.57726">
        <ele>485</ele>
      </trkpt>
      <trkpt lat="43.54587" lon="5.5774">
        <ele>471</ele>
      </trkpt>
      <trkpt lat="43.54712" lon="5.57679">
        <ele>454</ele>
      </trkpt>
      <trkpt lat="43.54756" lon="5.57716">
        <ele>449</ele>
      </trkpt>
      <trkpt lat="43.54748" lon="5.57823">
        <ele>446</ele>
      </trkpt>
      <trkpt lat="43.54756" lon="5.57855">
        <ele>443</ele>
      </trkpt>
      <trkpt lat="43.54752" lon="5.57929">
        <ele>443</ele>
      </trkpt>
      <trkpt lat="43.54773" lon="5.57973">
        <ele>440</ele>
      </trkpt>
      <trkpt lat="43.54872" lon="5.57948">
        <ele>431</ele>
        <time>2010-08-15T14:47:15Z</time>
      </trkpt>
      <trkpt lat="43.54898" lon="5.57957">
        <ele>428</ele>
        <time>2010-08-15T14:47:45Z</time>
      </trkpt>
      <trkpt lat="43.54925" lon="5.57983">
        <ele>425</ele>
        <time>2010-08-15T14:48:15Z</time>
      </trkpt>
      <trkpt lat="43.54942" lon="5.58018">
        <ele>420</ele>
        <time>2010-08-15T14:48:45Z</time>
      </trkpt>
      <trkpt lat="43.54953" lon="5.58045">
        <ele>416</ele>
        <time>2010-08-15T14:49:15Z</time>
      </trkpt>
      <trkpt lat="43.5496" lon="5.58057">
        <ele>414</ele>
        <time>2010-08-15T14:49:45Z</time>
      </trkpt>
      <trkpt lat="43.5497" lon="5.58098">
        <ele>406</ele>
        <time>2010-08-15T14:50:15Z</time>
      </trkpt>
      <trkpt lat="43.54982" lon="5.58132">
        <ele>397</ele>
        <time>2010-08-15T14:50:45Z</time>
      </trkpt>
      <trkpt lat="43.54988" lon="5.58167">
        <ele>389</ele>
        <time>2010-08-15T14:51:15Z</time>
      </trkpt>
      <trkpt lat="43.55002" lon="5.58183">
        <ele>384</ele>
        <time>2010-08-15T14:51:45Z</time>
      </trkpt>
      <trkpt lat="43.55017" lon="5.58177">
        <ele>383</ele>
        <time>2010-08-15T14:52:15Z</time>
      </trkpt>
      <trkpt lat="43.55037" lon="5.58147">
        <ele>381</ele>
        <time>2010-08-15T14:52:45Z</time>
      </trkpt>
      <trkpt lat="43.55058" lon="5.58135">
        <ele>374</ele>
        <time>2010-08-15T14:53:15Z</time>
      </trkpt>
      <trkpt lat="43.55068" lon="5.58168">
        <ele>371</ele>
        <time>2010-08-15T14:53:45Z</time>
      </trkpt>
      <trkpt lat="43.55062" lon="5.58205">
        <ele>371</ele>
        <time>2010-08-15T14:54:15Z</time>
      </trkpt>
      <trkpt lat="43.55057" lon="5.58245">
        <ele>370</ele>
        <time>2010-08-15T14:54:46Z</time>
      </trkpt>
      <trkpt lat="43.55073" lon="5.58287">
        <ele>364</ele>
        <time>2010-08-15T14:55:16Z</time>
      </trkpt>
      <trkpt lat="43.55078" lon="5.58332">
        <ele>361</ele>
        <time>2010-08-15T14:55:46Z</time>
      </trkpt>
      <trkpt lat="43.55088" lon="5.58367">
        <ele>359</ele>
        <time>2010-08-15T14:56:16Z</time>
      </trkpt>
      <trkpt lat="43.55102" lon="5.58395">
        <ele>360</ele>
        <time>2010-08-15T14:56:46Z</time>
      </trkpt>
      <trkpt lat="43.55108" lon="5.58422">
        <ele>362</ele>
        <time>2010-08-15T14:57:16Z</time>
      </trkpt>
      <trkpt lat="43.55132" lon="5.5841">
        <ele>364</ele>
        <time>2010-08-15T14:57:46Z</time>
      </trkpt>
      <trkpt lat="43.55162" lon="5.58398">
        <ele>363</ele>
        <time>2010-08-15T14:58:16Z</time>
      </trkpt>
      <trkpt lat="43.55192" lon="5.58427">
        <ele>365</ele>
        <time>2010-08-15T14:58:46Z</time>
      </trkpt>
      <trkpt lat="43.55225" lon="5.58453">
        <ele>360</ele>
        <time>2010-08-15T14:59:16Z</time>
      </trkpt>
      <trkpt lat="43.55242" lon="5.58488">
        <ele>359</ele>
        <time>2010-08-15T14:59:46Z</time>
      </trkpt>
      <trkpt lat="43.55252" lon="5.58473">
        <ele>359</ele>
        <time>2010-08-15T15:00:16Z</time>
      </trkpt>
      <trkpt lat="43.55257" lon="5.5844">
        <ele>360</ele>
        <time>2010-08-15T15:00:46Z</time>
      </trkpt>
      <trkpt lat="43.55275" lon="5.58388">
        <ele>359</ele>
        <time>2010-08-15T15:01:16Z</time>
      </trkpt>
      <trkpt lat="43.553" lon="5.58367">
        <ele>361</ele>
        <time>2010-08-15T15:01:46Z</time>
      </trkpt>
      <trkpt lat="43.55297" lon="5.58342">
        <ele>360</ele>
        <time>2010-08-15T15:02:16Z</time>
      </trkpt>
      <trkpt lat="43.55285" lon="5.583">
        <ele>359</ele>
        <time>2010-08-15T15:02:47Z</time>
      </trkpt>
      <trkpt lat="43.5527" lon="5.58257">
        <ele>359</ele>
        <time>2010-08-15T15:03:17Z</time>
      </trkpt>
      <trkpt lat="43.5525" lon="5.58237">
        <ele>359</ele>
        <time>2010-08-15T15:03:47Z</time>
      </trkpt>
      <trkpt lat="43.55217" lon="5.5821">
        <ele>358</ele>
        <time>2010-08-15T15:04:17Z</time>
      </trkpt>
      <trkpt lat="43.5519" lon="5.58173">
        <ele>357</ele>
        <time>2010-08-15T15:04:47Z</time>
      </trkpt>
      <trkpt lat="43.55177" lon="5.58127">
        <ele>357</ele>
        <time>2010-08-15T15:05:17Z</time>
      </trkpt>
      <trkpt lat="43.55172" lon="5.58073">
        <ele>356</ele>
        <time>2010-08-15T15:05:47Z</time>
      </trkpt>
      <trkpt lat="43.55167" lon="5.58022">
        <ele>355</ele>
        <time>2010-08-15T15:06:17Z</time>
      </trkpt>
      <trkpt lat="43.55188" lon="5.57983">
        <ele>355</ele>
        <time>2010-08-15T15:06:47Z</time>
      </trkpt>
      <trkpt lat="43.55207" lon="5.57952">
        <ele>356</ele>
        <time>2010-08-15T15:07:17Z</time>
      </trkpt>
      <trkpt lat="43.5523" lon="5.57905">
        <ele>357</ele>
        <time>2010-08-15T15:07:47Z</time>
      </trkpt>
      <trkpt lat="43.55258" lon="5.57868">
        <ele>358</ele>
        <time>2010-08-15T15:08:18Z</time>
      </trkpt>
      <trkpt lat="43.55287" lon="5.57833">
        <ele>359</ele>
        <time>2010-08-15T15:08:48Z</time>
      </trkpt>
      <trkpt lat="43.55288" lon="5.57855">
        <ele>359</ele>
        <time>2010-08-15T15:09:18Z</time>
      </trkpt>
      <trkpt lat="43.553" lon="5.57877">
        <ele>360</ele>
        <time>2010-08-15T15:09:48Z</time>
      </trkpt>
      <trkpt lat="43.5532" lon="5.57885">
        <ele>362</ele>
        <time>2010-08-15T15:10:18Z</time>
      </trkpt>
      <trkpt lat="43.55343" lon="5.57887">
        <ele>364</ele>
        <time>2010-08-15T15:10:48Z</time>
      </trkpt>
      <trkpt lat="43.55367" lon="5.57895">
        <ele>366</ele>
        <time>2010-08-15T15:11:18Z</time>
      </trkpt>
      <trkpt lat="43.5538" lon="5.57908">
        <ele>368</ele>
        <time>2010-08-15T15:11:48Z</time>
      </trkpt>
      <trkpt lat="43.55378" lon="5.57908">
        <ele>367</ele>
        <time>2010-08-15T15:12:18Z</time>
      </trkpt>
      <trkpt lat="43.55378" lon="5.57913">
        <ele>367</ele>
        <time>2010-08-15T15:12:48Z</time>
      </trkpt>
      <trkpt lat="43.55377" lon="5.5791">
        <ele>367</ele>
        <time>2010-08-15T15:13:18Z</time>
      </trkpt>
    </trkseg>
  </trk>
</gpx>